Time;durP1;ratioP1;P1;durP2;ratioP2;P2;SDS_P1;SDS_P2;PMS_P1;PMS_P2;Temp;Humidity;BMP_temperature;BMP_pressure;BME280_temperature;BME280_humidity;BME280_pressure;Samples;Min_cycle;Max_cycle;Signal;HPM_P1;HPM_P2
2022/12/27 00:00:14;;;;;;;;;;;3.00;99.90;;;;;;4845143;29;19925;-72
2022/12/27 00:02:40;;;;;;;;;;;3.00;99.90;;;;;;4834275;29;19944;-72
2022/12/27 00:05:07;;;;;;;;;;;3.00;99.90;;;;;;4839058;29;19960;-72
2022/12/27 00:07:32;;;;;;;;;;;3.00;99.90;;;;;;4837680;29;19970;-72
2022/12/27 00:09:58;;;;;;;;;;;3.10;99.90;;;;;;4846294;29;19986;-72
2022/12/27 00:12:24;;;;;;;;;;;3.10;99.90;;;;;;4824534;29;20054;-72
2022/12/27 00:14:49;;;;;;;;;;;3.10;99.90;;;;;;4862565;29;19928;-73
2022/12/27 00:17:15;;;;;;;;;;;3.10;99.90;;;;;;4828900;29;19928;-72
2022/12/27 00:19:40;;;;;;;;;;;3.10;99.90;;;;;;4840794;29;20493;-72
2022/12/27 00:22:06;;;;;;;;;;;3.00;99.90;;;;;;4852475;29;19957;-72
2022/12/27 00:24:34;;;;;;;;;;;3.00;99.90;;;;;;4851308;29;19955;-73
2022/12/27 00:26:59;;;;;;;;;;;3.10;99.90;;;;;;4840518;29;19924;-73
2022/12/27 00:29:25;;;;;;;;;;;3.10;99.90;;;;;;4851554;29;19928;-72
2022/12/27 00:31:50;;;;;;;;;;;3.20;99.90;;;;;;4847136;29;19971;-72
2022/12/27 00:34:16;;;;;;;;;;;3.30;99.90;;;;;;4847535;29;19924;-72
2022/12/27 00:36:42;;;;;;;;;;;3.40;99.90;;;;;;4854468;29;20400;-72
2022/12/27 00:39:08;;;;;;;;;;;3.50;99.90;;;;;;4835786;29;19932;-72
2022/12/27 00:41:34;;;;;;;;;;;3.60;99.90;;;;;;4847422;29;20011;-73
2022/12/27 00:44:00;;;;;;;;;;;3.70;99.90;;;;;;4854604;29;20464;-73
2022/12/27 00:46:25;;;;;;;;;;;3.70;99.90;;;;;;4837872;29;19932;-72
2022/12/27 00:48:51;;;;;;;;;;;3.70;99.90;;;;;;4851643;29;20064;-72
2022/12/27 00:51:18;;;;;;;;;;;3.80;99.90;;;;;;4862111;29;19931;-72
2022/12/27 00:53:44;;;;;;;;;;;3.80;99.90;;;;;;4836726;29;19928;-73
2022/12/27 00:56:11;;;;;;;;;;;3.80;99.90;;;;;;4837607;29;19928;-72
2022/12/27 00:58:37;;;;;;;;;;;3.80;99.90;;;;;;4856203;29;19936;-73
2022/12/27 01:01:07;;;;;;;;;;;3.90;99.90;;;;;;4847381;29;20308;-76
2022/12/27 01:03:32;;;;;;;;;;;4.10;99.90;;;;;;4857778;29;19939;-73
2022/12/27 01:06:02;;;;;;;;;;;4.20;99.90;;;;;;4824143;29;19932;-74
2022/12/27 01:08:28;;;;;;;;;;;4.20;99.90;;;;;;4846064;29;19924;-74
2022/12/27 01:10:54;;;;;;;;;;;4.00;99.90;;;;;;4828581;29;19999;-73
2022/12/27 01:13:20;;;;;;;;;;;3.90;99.90;;;;;;4833823;29;19996;-74
2022/12/27 01:15:45;;;;;;;;;;;3.90;99.90;;;;;;4852211;29;19956;-74
2022/12/27 01:18:11;;;;;;;;;;;4.10;99.90;;;;;;4852519;29;20023;-73
2022/12/27 01:20:37;;;;;;;;;;;4.20;99.90;;;;;;4855541;29;19928;-73
2022/12/27 01:23:03;;;;;;;;;;;4.30;99.90;;;;;;4840437;29;19935;-73
2022/12/27 01:25:28;;;;;;;;;;;4.30;99.90;;;;;;4854342;29;19924;-73
2022/12/27 01:27:54;;;;;;;;;;;4.30;99.90;;;;;;4852801;29;20277;-73
2022/12/27 01:30:19;;;;;;;;;;;4.40;99.90;;;;;;4843259;29;19932;-73
2022/12/27 01:32:45;;;;;;;;;;;4.40;99.90;;;;;;4843326;29;20023;-73
2022/12/27 01:35:11;;;;;;;;;;;4.40;99.90;;;;;;4820241;29;20012;-73
2022/12/27 01:37:36;;;;;;;;;;;4.40;99.90;;;;;;4837290;29;19930;-72
2022/12/27 01:40:02;;;;;;;;;;;4.40;99.90;;;;;;4839786;29;19928;-72
2022/12/27 01:45:25;;;;;;;;;;;4.30;99.90;;;;;;4835263;29;19928;-73
2022/12/27 01:48:17;;;;;;;;;;;4.30;99.90;;;;;;4848038;29;19940;-73
2022/12/27 01:50:48;;;;;;;;;;;4.30;99.90;;;;;;4839856;29;20501;-73
2022/12/27 01:53:14;;;;;;;;;;;4.20;99.90;;;;;;4851958;29;19928;-73
2022/12/27 01:55:57;;;;;;;;;;;4.20;99.90;;;;;;4838947;29;20269;-73
2022/12/27 01:58:26;;;;;;;;;;;4.10;99.90;;;;;;4850634;29;20292;-72
2022/12/27 02:00:51;;;;;;;;;;;4.10;99.90;;;;;;4853219;29;19927;-73
2022/12/27 02:03:25;;;;;;;;;;;4.00;99.90;;;;;;4842371;29;19928;-73
2022/12/27 02:05:51;;;;;;;;;;;4.00;99.90;;;;;;4848380;29;19924;-73
2022/12/27 02:08:21;;;;;;;;;;;4.00;99.90;;;;;;4819836;29;20287;-72
2022/12/27 02:10:47;;;;;;;;;;;4.00;99.90;;;;;;4847422;29;19996;-73
2022/12/27 02:13:14;;;;;;;;;;;4.10;99.90;;;;;;4831388;29;19929;-73
2022/12/27 02:15:39;;;;;;;;;;;4.20;99.90;;;;;;4821953;29;19951;-72
2022/12/27 02:18:05;;;;;;;;;;;4.20;99.90;;;;;;4820762;29;19974;-72
2022/12/27 02:20:37;;;;;;;;;;;4.30;99.90;;;;;;4847844;29;19924;-72
2022/12/27 02:26:24;;;;;;;;;;;4.20;99.90;;;;;;4847265;29;19936;-72
2022/12/27 02:29:08;;;;;;;;;;;4.20;99.90;;;;;;4843687;29;19928;-73
2022/12/27 02:31:41;;;;;;;;;;;4.20;99.90;;;;;;4836076;29;20286;-72
2022/12/27 02:34:13;;;;;;;;;;;4.10;99.90;;;;;;4851536;29;19928;-72
2022/12/27 02:36:38;;;;;;;;;;;4.10;99.90;;;;;;4836774;29;19980;-72
2022/12/27 02:39:04;;;;;;;;;;;4.00;99.90;;;;;;4833175;29;20032;-73
2022/12/27 02:53:06;;;;;;;;;;;3.70;99.90;;;;;;4831176;29;19928;-72
2022/12/27 02:55:35;;;;;;;;;;;3.70;99.90;;;;;;4823077;29;19932;-72
2022/12/27 02:58:04;;;;;;;;;;;3.70;99.90;;;;;;4842971;29;21172;-73
2022/12/27 03:03:27;;;;;;;;;;;3.70;99.90;;;;;;4846506;29;19936;-73
2022/12/27 03:15:53;;;;;;;;;;;3.70;99.90;;;;;;4851302;29;19932;-72
2022/12/27 03:17:43;;;;;;;;;;;3.60;99.90;;;;;;4846695;29;20110;-72
2022/12/27 03:25:43;;;;;;;;;;;3.60;99.90;;;;;;4844317;29;20007;-72
2022/12/27 03:34:03;;;;;;;;;;;3.70;99.90;;;;;;4850802;29;19924;-72
2022/12/27 03:39:18;;;;;;;;;;;3.70;99.90;;;;;;4842333;29;20031;-72
2022/12/27 03:44:33;;;;;;;;;;;3.90;99.90;;;;;;4854337;29;19925;-72
2022/12/27 03:47:01;;;;;;;;;;;4.00;99.90;;;;;;4837738;29;19931;-72
2022/12/27 03:49:35;;;;;;;;;;;4.00;99.90;;;;;;4839618;29;20019;-73
2022/12/27 03:52:04;;;;;;;;;;;4.10;99.90;;;;;;4860834;29;20391;-72
2022/12/27 03:54:32;;;;;;;;;;;4.10;99.90;;;;;;4860717;29;19924;-73
2022/12/27 03:56:59;;;;;;;;;;;4.00;99.90;;;;;;4833274;29;19928;-72
2022/12/27 03:59:25;;;;;;;;;;;3.90;99.90;;;;;;4838834;29;20074;-72
2022/12/27 04:01:51;;;;;;;;;;;3.80;99.90;;;;;;4850558;29;20011;-73
2022/12/27 04:04:16;;;;;;;;;;;3.80;99.90;;;;;;4839387;29;20014;-73
2022/12/27 04:06:42;;;;;;;;;;;3.80;99.90;;;;;;4841313;29;19935;-73
2022/12/27 04:36:32;;;;;;;;;;;3.60;99.90;;;;;;4852948;29;19924;-72
2022/12/27 04:38:58;;;;;;;;;;;3.60;99.90;;;;;;4856311;29;20289;-72
2022/12/27 04:55:13;;;;;;;;;;;3.70;99.90;;;;;;4856146;29;20363;-73
2022/12/27 04:57:38;;;;;;;;;;;3.70;99.90;;;;;;4851072;29;19928;-73
2022/12/27 05:02:48;;;;;;;;;;;3.80;99.90;;;;;;4836185;29;20573;-72
2022/12/27 05:05:14;;;;;;;;;;;3.80;99.90;;;;;;4860924;29;19924;-72
2022/12/27 05:15:54;;;;;;;;;;;3.30;99.90;;;;;;4853890;29;19924;-72
2022/12/27 05:18:19;;;;;;;;;;;3.20;99.90;;;;;;4854928;29;20363;-73
2022/12/27 05:20:45;;;;;;;;;;;3.10;99.90;;;;;;4848718;29;19964;-73
2022/12/27 05:25:55;;;;;;;;;;;3.00;99.90;;;;;;4851252;29;19925;-72
2022/12/27 05:28:20;;;;;;;;;;;2.90;99.90;;;;;;4859907;29;19932;-73
2022/12/27 05:30:46;;;;;;;;;;;2.90;99.90;;;;;;4830474;29;19924;-73
2022/12/27 05:33:12;;;;;;;;;;;2.80;99.90;;;;;;4852223;29;19931;-73
2022/12/27 05:35:38;;;;;;;;;;;2.80;99.90;;;;;;4858059;29;19935;-73
2022/12/27 05:38:05;;;;;;;;;;;2.70;99.90;;;;;;4853738;29;19977;-73
2022/12/27 05:40:31;;;;;;;;;;;2.70;99.90;;;;;;4850787;29;20396;-72
2022/12/27 05:42:58;;;;;;;;;;;2.70;99.90;;;;;;4855612;29;19932;-73
2022/12/27 05:45:23;;;;;;;;;;;2.60;99.90;;;;;;4837697;29;20007;-73
2022/12/27 05:47:49;;;;;;;;;;;2.60;99.90;;;;;;4832827;29;20026;-73
2022/12/27 05:50:15;;;;;;;;;;;2.60;99.90;;;;;;4849872;29;19936;-73
2022/12/27 05:52:40;;;;;;;;;;;2.60;99.90;;;;;;4837458;29;20457;-73
2022/12/27 05:55:06;;;;;;;;;;;2.60;99.90;;;;;;4841522;29;19952;-73
2022/12/27 05:57:32;;;;;;;;;;;2.50;99.90;;;;;;4839028;29;19932;-73
2022/12/27 05:59:58;;;;;;;;;;;2.50;99.90;;;;;;4850562;29;20465;-72
2022/12/27 06:02:24;;;;;;;;;;;2.40;99.90;;;;;;4832227;29;19928;-73
2022/12/27 06:04:49;;;;;;;;;;;2.40;99.90;;;;;;4837088;29;20692;-73
2022/12/27 06:07:15;;;;;;;;;;;2.30;99.90;;;;;;4861025;29;19932;-73
2022/12/27 06:09:41;;;;;;;;;;;2.30;99.90;;;;;;4861018;29;20558;-73
2022/12/27 06:12:07;;;;;;;;;;;2.20;99.90;;;;;;4834159;29;19928;-72
2022/12/27 06:14:32;;;;;;;;;;;2.20;99.90;;;;;;4836329;29;19931;-73
2022/12/27 06:16:58;;;;;;;;;;;2.30;99.90;;;;;;4850252;29;19924;-72
2022/12/27 06:19:23;;;;;;;;;;;2.40;99.90;;;;;;4824462;29;19931;-72
2022/12/27 06:21:49;;;;;;;;;;;2.50;99.90;;;;;;4842148;29;19924;-72
2022/12/27 06:24:15;;;;;;;;;;;2.60;99.90;;;;;;4849783;29;19940;-72
2022/12/27 06:26:41;;;;;;;;;;;2.60;99.90;;;;;;4856015;29;20325;-72
2022/12/27 06:29:11;;;;;;;;;;;2.60;99.90;;;;;;4841734;29;19932;-72
2022/12/27 06:31:36;;;;;;;;;;;2.60;99.90;;;;;;4845366;29;19932;-72
2022/12/27 06:34:02;;;;;;;;;;;2.60;99.90;;;;;;4855796;29;20523;-72
2022/12/27 06:36:31;;;;;;;;;;;2.60;99.90;;;;;;4857491;29;19924;-72
2022/12/27 06:38:57;;;;;;;;;;;2.60;99.90;;;;;;4866550;29;20037;-72
2022/12/27 06:41:23;;;;;;;;;;;2.60;99.90;;;;;;4848707;29;20421;-72
2022/12/27 06:43:52;;;;;;;;;;;2.50;99.90;;;;;;4841196;29;19928;-72
2022/12/27 06:46:18;;;;;;;;;;;2.50;99.90;;;;;;4858683;29;20016;-73
2022/12/27 06:48:44;;;;;;;;;;;2.40;99.90;;;;;;4866285;29;20001;-73
2022/12/27 06:51:11;;;;;;;;;;;2.40;99.90;;;;;;4853624;29;19924;-73
2022/12/27 06:53:36;;;;;;;;;;;2.40;99.90;;;;;;4857894;29;19951;-73
2022/12/27 06:56:03;;;;;;;;;;;2.40;99.90;;;;;;4838295;29;19928;-73
2022/12/27 06:58:29;;;;;;;;;;;2.30;99.90;;;;;;4838465;29;20451;-73
2022/12/27 07:00:54;;;;;;;;;;;2.30;99.90;;;;;;4844801;29;19923;-73
2022/12/27 07:03:20;;;;;;;;;;;2.30;99.90;;;;;;4856998;29;20009;-73
2022/12/27 07:05:45;;;;;;;;;;;2.30;99.90;;;;;;4859709;29;19932;-72
2022/12/27 07:08:11;;;;;;;;;;;2.30;99.90;;;;;;4854673;29;19928;-73
2022/12/27 07:10:37;;;;;;;;;;;2.30;99.90;;;;;;4845670;29;19924;-73
2022/12/27 07:13:02;;;;;;;;;;;2.30;99.90;;;;;;4825915;29;19932;-73
2022/12/27 07:15:28;;;;;;;;;;;2.30;99.90;;;;;;4854638;29;20470;-73
2022/12/27 07:17:54;;;;;;;;;;;2.30;99.90;;;;;;4855190;29;19924;-72
2022/12/27 07:20:19;;;;;;;;;;;2.30;99.90;;;;;;4853551;29;19932;-72
2022/12/27 07:22:45;;;;;;;;;;;2.20;99.90;;;;;;4841648;29;19928;-73
2022/12/27 07:25:10;;;;;;;;;;;2.10;99.90;;;;;;4840546;29;20011;-73
2022/12/27 07:27:36;;;;;;;;;;;2.00;99.90;;;;;;4856624;29;19928;-73
2022/12/27 07:30:03;;;;;;;;;;;2.00;99.90;;;;;;4853435;29;19928;-73
2022/12/27 07:32:28;;;;;;;;;;;1.90;99.90;;;;;;4846912;29;20015;-73
2022/12/27 07:34:54;;;;;;;;;;;1.80;99.90;;;;;;4825753;29;20366;-72
2022/12/27 07:37:19;;;;;;;;;;;1.70;99.90;;;;;;4836341;29;20050;-72
2022/12/27 07:39:45;;;;;;;;;;;1.70;99.90;;;;;;4839349;29;20023;-73
2022/12/27 07:42:11;;;;;;;;;;;1.70;99.90;;;;;;4847299;29;19928;-73
2022/12/27 07:44:37;;;;;;;;;;;1.60;99.90;;;;;;4853143;29;19928;-73
2022/12/27 07:47:02;;;;;;;;;;;1.60;99.90;;;;;;4850585;29;20539;-73
2022/12/27 07:49:28;;;;;;;;;;;1.60;99.90;;;;;;4821009;29;19936;-72
2022/12/27 07:51:53;;;;;;;;;;;1.60;99.90;;;;;;4844898;29;19935;-72
2022/12/27 07:54:19;;;;;;;;;;;1.50;99.90;;;;;;4840095;29;20047;-73
2022/12/27 07:56:45;;;;;;;;;;;1.50;99.90;;;;;;4825007;29;19925;-73
2022/12/27 07:59:11;;;;;;;;;;;1.50;99.90;;;;;;4850708;29;19932;-73
2022/12/27 08:04:21;;;;;;;;;;;1.50;99.90;;;;;;4865908;29;20546;-72
2022/12/27 08:06:47;;;;;;;;;;;1.50;99.90;;;;;;4840017;29;19930;-73
2022/12/27 08:09:14;;;;;;;;;;;1.50;99.90;;;;;;4859342;29;20278;-73
2022/12/27 08:11:40;;;;;;;;;;;1.50;99.90;;;;;;4851304;29;20031;-73
2022/12/27 08:14:05;;;;;;;;;;;1.50;99.90;;;;;;4820822;29;20445;-73
2022/12/27 08:16:31;;;;;;;;;;;1.60;99.90;;;;;;4849505;29;19924;-72
2022/12/27 08:18:56;;;;;;;;;;;1.60;99.90;;;;;;4855413;29;20301;-72
2022/12/27 08:21:22;;;;;;;;;;;1.60;99.90;;;;;;4836637;29;19924;-73
2022/12/27 08:23:48;;;;;;;;;;;1.60;99.90;;;;;;4858388;29;19927;-73
2022/12/27 08:26:14;;;;;;;;;;;1.70;99.90;;;;;;4858644;29;19928;-73
2022/12/27 08:28:40;;;;;;;;;;;1.70;99.90;;;;;;4846732;29;20044;-73
2022/12/27 08:31:07;;;;;;;;;;;1.70;99.90;;;;;;4834671;29;20300;-73
2022/12/27 08:33:36;;;;;;;;;;;1.70;99.90;;;;;;4829152;29;20077;-72
2022/12/27 08:36:02;;;;;;;;;;;1.70;99.90;;;;;;4847972;29;20010;-73
2022/12/27 08:38:28;;;;;;;;;;;1.70;99.90;;;;;;4854268;29;20068;-73
2022/12/27 08:40:54;;;;;;;;;;;1.80;99.90;;;;;;4843258;29;20027;-73
2022/12/27 08:43:19;;;;;;;;;;;1.80;99.90;;;;;;4823086;29;19936;-73
2022/12/27 08:45:45;;;;;;;;;;;1.90;99.90;;;;;;4836891;29;20306;-73
2022/12/27 08:48:11;;;;;;;;;;;1.90;99.90;;;;;;4851687;29;20536;-73
2022/12/27 08:50:37;;;;;;;;;;;2.00;99.90;;;;;;4849234;29;20006;-73
2022/12/27 08:53:03;;;;;;;;;;;2.00;99.90;;;;;;4851154;29;19928;-73
2022/12/27 08:55:29;;;;;;;;;;;2.10;99.90;;;;;;4846689;29;19931;-73
2022/12/27 08:58:02;;;;;;;;;;;2.20;99.90;;;;;;4845942;29;20478;-73
2022/12/27 09:00:29;;;;;;;;;;;2.30;99.90;;;;;;4852720;29;19971;-75
2022/12/27 09:02:55;;;;;;;;;;;2.30;99.90;;;;;;4845250;29;19943;-74
2022/12/27 09:05:22;;;;;;;;;;;2.40;99.90;;;;;;4843846;29;19932;-74
2022/12/27 09:07:47;;;;;;;;;;;2.40;99.90;;;;;;4851850;29;19928;-73
2022/12/27 09:10:13;;;;;;;;;;;2.40;99.90;;;;;;4845507;29;19929;-74
2022/12/27 09:12:39;;;;;;;;;;;2.40;99.90;;;;;;4839780;29;19933;-75
2022/12/27 09:15:05;;;;;;;;;;;2.50;99.90;;;;;;4854461;29;19924;-74
2022/12/27 09:17:31;;;;;;;;;;;2.50;99.90;;;;;;4843981;29;19925;-73
2022/12/27 09:22:32;;;;;;;;;;;2.60;99.90;;;;;;5023103;23;19939;-75
2022/12/27 09:24:58;;;;;;;;;;;2.60;99.90;;;;;;4889655;29;19931;-76
2022/12/27 09:27:24;;;;;;;;;;;2.70;99.90;;;;;;4908207;29;19947;-76
2022/12/27 09:29:50;;;;;;;;;;;2.70;99.90;;;;;;4911273;29;19927;-76
2022/12/27 09:32:15;;;;;;;;;;;2.80;99.90;;;;;;4908544;29;19938;-76
2022/12/27 09:34:41;;;;;;;;;;;2.90;99.90;;;;;;4911683;29;19974;-74
2022/12/27 09:37:07;;;;;;;;;;;3.00;99.90;;;;;;4879905;29;19955;-75
2022/12/27 09:39:33;;;;;;;;;;;3.10;99.90;;;;;;4878538;29;19974;-76
2022/12/27 09:42:18;;;;;;;;;;;3.10;99.90;;;;;;4895180;29;20411;-76
2022/12/27 09:44:53;;;;;;;;;;;3.20;99.90;;;;;;4911412;29;20062;-75
2022/12/27 09:47:28;;;;;;;;;;;3.40;99.90;;;;;;4894978;29;20006;-77
2022/12/27 09:52:36;;;;;;;;;;;3.70;99.90;;;;;;5024762;23;20291;-74
2022/12/27 09:55:21;;;;;;;;;;;3.90;99.90;;;;;;4854108;29;20023;-75
2022/12/27 09:57:47;;;;;;;;;;;4.00;99.90;;;;;;4855869;29;19983;-74
2022/12/27 10:00:22;;;;;;;;;;;4.10;99.90;;;;;;4857503;29;19931;-74
2022/12/27 10:02:49;;;;;;;;;;;4.10;99.90;;;;;;4842834;29;19932;-74
2022/12/27 10:05:29;;;;;;;;;;;4.10;99.90;;;;;;4846589;29;19928;-74
2022/12/27 10:08:10;;;;;;;;;;;4.10;99.90;;;;;;4860958;29;19932;-74
2022/12/27 10:10:46;;;;;;;;;;;4.10;99.90;;;;;;4856211;29;19932;-74
2022/12/27 10:13:12;;;;;;;;;;;4.20;99.90;;;;;;4836461;29;19976;-74
2022/12/27 10:15:37;;;;;;;;;;;4.20;99.90;;;;;;4858608;29;20383;-74
2022/12/27 10:18:22;;;;;;;;;;;4.30;99.90;;;;;;4856213;29;19967;-74
2022/12/27 10:21:14;;;;;;;;;;;4.40;99.90;;;;;;4857073;29;20011;-74
2022/12/27 10:23:42;;;;;;;;;;;4.50;99.90;;;;;;4851612;29;19935;-75
2022/12/27 10:26:18;;;;;;;;;;;4.50;99.90;;;;;;4855594;29;19932;-74
2022/12/27 10:28:45;;;;;;;;;;;4.50;99.90;;;;;;4842686;29;19949;-73
2022/12/27 10:31:13;;;;;;;;;;;4.50;99.90;;;;;;4852057;29;20383;-74
2022/12/27 10:33:39;;;;;;;;;;;4.60;99.90;;;;;;4856829;29;19979;-74
2022/12/27 10:36:15;;;;;;;;;;;4.60;99.90;;;;;;4858991;29;19924;-73
2022/12/27 10:38:41;;;;;;;;;;;4.60;99.90;;;;;;4860413;29;19975;-74
2022/12/27 10:41:06;;;;;;;;;;;4.60;99.90;;;;;;4825228;29;19928;-73
2022/12/27 10:43:34;;;;;;;;;;;4.60;99.90;;;;;;4858720;29;19928;-74
2022/12/27 10:46:16;;;;;;;;;;;4.50;99.90;;;;;;4855290;29;19927;-73
2022/12/27 10:49:02;;;;;;;;;;;4.50;99.90;;;;;;4856110;29;19980;-73
2022/12/27 10:51:33;;;;;;;;;;;4.50;99.90;;;;;;4860579;29;19979;-73
2022/12/27 10:54:00;;;;;;;;;;;4.50;99.90;;;;;;4852996;29;20292;-73
2022/12/27 10:56:28;;;;;;;;;;;4.60;99.90;;;;;;4855239;29;20825;-73
2022/12/27 10:58:54;;;;;;;;;;;4.70;99.90;;;;;;4856677;29;19936;-73
2022/12/27 11:01:23;;;;;;;;;;;4.70;99.90;;;;;;4859071;29;19957;-73
2022/12/27 11:03:49;;;;;;;;;;;4.80;99.90;;;;;;4854388;29;19935;-73
2022/12/27 11:06:23;;;;;;;;;;;4.80;99.90;;;;;;4836832;29;19928;-73
2022/12/27 11:08:49;;;;;;;;;;;4.80;99.90;;;;;;4858527;29;19934;-74
2022/12/27 11:11:17;;;;;;;;;;;4.80;99.90;;;;;;4840978;29;19928;-74
2022/12/27 11:13:43;;;;;;;;;;;4.80;99.90;;;;;;4853134;29;20063;-73
2022/12/27 11:16:17;;;;;;;;;;;4.80;99.90;;;;;;4853829;29;20535;-73
2022/12/27 11:18:49;;;;;;;;;;;4.80;99.90;;;;;;4845569;29;19924;-74
2022/12/27 11:21:15;;;;;;;;;;;4.80;99.90;;;;;;4838222;29;19923;-73
2022/12/27 11:23:43;;;;;;;;;;;4.90;99.90;;;;;;4858300;29;19936;-73
2022/12/27 11:26:16;;;;;;;;;;;4.90;99.90;;;;;;4858562;29;19931;-73
2022/12/27 11:28:49;;;;;;;;;;;5.00;99.90;;;;;;4860965;29;19932;-73
2022/12/27 11:31:24;;;;;;;;;;;5.10;99.90;;;;;;4860729;29;19928;-74
2022/12/27 11:33:58;;;;;;;;;;;5.20;99.90;;;;;;4877012;29;19987;-73
2022/12/27 11:36:28;;;;;;;;;;;5.20;99.90;;;;;;4857740;29;19932;-73
2022/12/27 11:38:54;;;;;;;;;;;5.20;99.90;;;;;;4860813;29;19952;-73
2022/12/27 11:41:23;;;;;;;;;;;5.20;99.90;;;;;;4877894;29;19928;-72
2022/12/27 11:43:57;;;;;;;;;;;5.20;99.90;;;;;;4856060;29;19991;-73
2022/12/27 11:46:26;;;;;;;;;;;5.10;99.90;;;;;;4860296;29;19928;-73
2022/12/27 11:48:54;;;;;;;;;;;5.10;99.90;;;;;;4860747;29;19975;-73
2022/12/27 11:51:29;;;;;;;;;;;5.00;99.90;;;;;;4859809;29;20035;-73
2022/12/27 11:54:00;;;;;;;;;;;5.00;99.90;;;;;;4860309;29;19932;-73
2022/12/27 11:56:26;;;;;;;;;;;5.10;99.90;;;;;;4874585;29;19927;-74
2022/12/27 11:59:03;;;;;;;;;;;5.10;99.90;;;;;;4861713;29;19923;-73
2022/12/27 12:01:39;;;;;;;;;;;5.10;99.90;;;;;;4856268;29;19928;-73
2022/12/27 12:04:30;;;;;;;;;;;5.00;99.90;;;;;;4855097;29;19943;-73
2022/12/27 12:07:06;;;;;;;;;;;5.10;99.90;;;;;;4857446;29;19928;-73
2022/12/27 12:09:53;;;;;;;;;;;5.00;99.90;;;;;;4856687;29;19930;-73
2022/12/27 12:12:32;;;;;;;;;;;5.00;99.90;;;;;;4858171;29;19960;-73
2022/12/27 12:15:16;;;;;;;;;;;5.00;99.90;;;;;;4865652;29;19931;-73
2022/12/27 12:17:44;;;;;;;;;;;4.90;99.90;;;;;;4852323;29;19924;-73
2022/12/27 12:20:29;;;;;;;;;;;5.00;99.90;;;;;;4853093;29;19924;-73
2022/12/27 12:23:11;;;;;;;;;;;5.00;99.90;;;;;;4853843;29;19928;-72
2022/12/27 12:25:37;;;;;;;;;;;5.00;99.90;;;;;;4850992;29;20351;-73
2022/12/27 12:28:21;;;;;;;;;;;5.20;99.90;;;;;;4855598;29;19974;-73
2022/12/27 12:30:46;;;;;;;;;;;5.20;99.90;;;;;;4845683;29;19946;-73
2022/12/27 12:33:30;;;;;;;;;;;5.30;99.90;;;;;;4843268;29;19935;-71
2022/12/27 12:36:13;;;;;;;;;;;5.30;99.90;;;;;;4858927;29;19931;-73
2022/12/27 12:38:45;;;;;;;;;;;5.30;99.90;;;;;;4837463;29;19924;-74
2022/12/27 12:41:26;;;;;;;;;;;5.40;99.90;;;;;;4852880;29;20395;-73
2022/12/27 12:44:10;;;;;;;;;;;5.40;99.90;;;;;;4856257;29;19928;-73
2022/12/27 12:46:37;;;;;;;;;;;5.50;99.90;;;;;;4851754;29;20392;-73
2022/12/27 12:49:21;;;;;;;;;;;5.50;99.90;;;;;;4854896;29;20010;-72
2022/12/27 12:52:06;;;;;;;;;;;5.60;99.90;;;;;;4855334;29;19923;-73
2022/12/27 12:54:38;;;;;;;;;;;5.60;99.90;;;;;;4848959;29;19975;-72
2022/12/27 12:57:08;;;;;;;;;;;5.50;99.90;;;;;;4859431;29;19987;-73
2022/12/27 12:59:37;;;;;;;;;;;5.50;99.90;;;;;;4859165;29;19924;-73
2022/12/27 13:02:22;;;;;;;;;;;5.40;99.90;;;;;;4859659;29;19931;-73
2022/12/27 13:04:54;;;;;;;;;;;5.40;99.90;;;;;;4859182;29;20015;-73
2022/12/27 13:07:21;;;;;;;;;;;5.40;99.90;;;;;;4855671;29;21330;-74
2022/12/27 13:10:14;;;;;;;;;;;5.40;99.90;;;;;;4868421;29;20039;-73
2022/12/27 13:12:44;;;;;;;;;;;5.40;99.90;;;;;;4859429;29;20424;-73
2022/12/27 13:15:28;;;;;;;;;;;5.40;99.90;;;;;;4861050;29;20405;-74
2022/12/27 13:18:21;;;;;;;;;;;5.40;99.90;;;;;;4864055;29;20527;-73
2022/12/27 13:20:50;;;;;;;;;;;5.40;99.90;;;;;;4835638;29;19928;-72
2022/12/27 13:23:40;;;;;;;;;;;5.40;99.90;;;;;;4856419;29;19939;-73
2022/12/27 13:26:27;;;;;;;;;;;5.40;99.90;;;;;;4866780;29;20487;-74
2022/12/27 13:29:03;;;;;;;;;;;5.40;99.90;;;;;;4865719;29;19987;-73
2022/12/27 13:31:41;;;;;;;;;;;5.40;99.90;;;;;;4849579;29;20763;-73
2022/12/27 13:34:17;;;;;;;;;;;5.40;99.90;;;;;;4855387;29;19943;-73
2022/12/27 13:36:55;;;;;;;;;;;5.40;99.90;;;;;;4855295;29;19930;-73
2022/12/27 13:39:40;;;;;;;;;;;5.40;99.90;;;;;;4849037;29;20012;-73
2022/12/27 13:42:05;;;;;;;;;;;5.40;99.90;;;;;;4853136;29;19931;-73
2022/12/27 13:45:00;;;;;;;;;;;5.30;99.90;;;;;;4855007;29;19928;-72
2022/12/27 13:47:44;;;;;;;;;;;5.30;99.90;;;;;;4845231;29;19940;-72
2022/12/27 13:50:16;;;;;;;;;;;5.30;99.90;;;;;;4846066;29;20368;-73
2022/12/27 13:53:00;;;;;;;;;;;5.30;99.90;;;;;;4854445;29;20011;-72
2022/12/27 13:55:26;;;;;;;;;;;5.20;99.90;;;;;;4853772;29;19924;-72
2022/12/27 13:58:09;;;;;;;;;;;5.20;99.90;;;;;;4849333;29;19932;-72
2022/12/27 14:00:50;;;;;;;;;;;5.20;99.90;;;;;;4853065;29;19931;-72
2022/12/27 14:03:28;;;;;;;;;;;5.10;99.90;;;;;;4850279;29;20392;-72
2022/12/27 14:05:53;;;;;;;;;;;5.10;99.90;;;;;;4849221;29;20027;-72
2022/12/27 14:08:37;;;;;;;;;;;5.00;99.90;;;;;;4846223;29;20023;-72
2022/12/27 14:11:11;;;;;;;;;;;5.00;99.90;;;;;;4853362;29;20436;-71
2022/12/27 14:13:42;;;;;;;;;;;4.90;99.90;;;;;;4854923;29;19930;-72
2022/12/27 14:16:26;;;;;;;;;;;4.90;99.90;;;;;;4854679;29;20011;-72
2022/12/27 14:19:10;;;;;;;;;;;4.90;99.90;;;;;;4850325;29;19998;-72
2022/12/27 14:21:39;;;;;;;;;;;4.80;99.90;;;;;;4854880;29;19931;-72
2022/12/27 14:24:28;;;;;;;;;;;4.80;99.90;;;;;;4851871;29;20812;-72
2022/12/27 14:27:00;;;;;;;;;;;4.80;99.90;;;;;;4841156;29;19978;-72
2022/12/27 14:29:31;;;;;;;;;;;4.70;99.90;;;;;;4841356;29;19932;-72
2022/12/27 14:32:06;;;;;;;;;;;4.70;99.90;;;;;;4854812;29;20281;-72
2022/12/27 14:34:58;;;;;;;;;;;4.70;99.90;;;;;;4856446;29;19975;-72
2022/12/27 14:37:42;;;;;;;;;;;4.70;99.90;;;;;;4851977;29;19981;-72
2022/12/27 14:40:27;;;;;;;;;;;4.70;99.90;;;;;;4857552;29;19934;-72
2022/12/27 14:42:52;;;;;;;;;;;4.70;99.90;;;;;;4857715;29;20018;-72
2022/12/27 14:45:38;;;;;;;;;;;4.60;99.90;;;;;;4859748;29;20871;-72
2022/12/27 14:48:22;;;;;;;;;;;4.60;99.90;;;;;;4858914;29;20332;-72
2022/12/27 14:51:03;;;;;;;;;;;4.70;99.90;;;;;;4844582;29;20328;-72
2022/12/27 14:53:44;;;;;;;;;;;4.70;99.90;;;;;;4859160;29;19932;-72
2022/12/27 14:56:28;;;;;;;;;;;4.70;99.90;;;;;;4860050;29;19930;-72
2022/12/27 14:59:18;;;;;;;;;;;4.70;99.90;;;;;;4860347;29;19971;-72
2022/12/27 15:01:46;;;;;;;;;;;4.80;99.90;;;;;;4854486;29;20365;-72
2022/12/27 15:04:31;;;;;;;;;;;4.80;99.90;;;;;;4860209;29;19971;-72
2022/12/27 15:07:15;;;;;;;;;;;4.90;99.90;;;;;;4843529;29;20007;-72
2022/12/27 15:09:59;;;;;;;;;;;4.90;99.90;;;;;;4861041;29;19928;-72
2022/12/27 15:12:43;;;;;;;;;;;4.90;99.90;;;;;;4856952;29;20034;-72
2022/12/27 15:15:28;;;;;;;;;;;5.00;99.90;;;;;;4861790;29;19924;-72
2022/12/27 15:18:00;;;;;;;;;;;4.90;99.90;;;;;;4858287;29;19928;-72
2022/12/27 15:20:35;;;;;;;;;;;4.90;99.90;;;;;;4857409;29;19936;-72
2022/12/27 15:23:26;;;;;;;;;;;4.80;99.90;;;;;;4834923;29;19982;-72
2022/12/27 15:25:56;;;;;;;;;;;4.80;99.90;;;;;;4841230;29;19991;-73
2022/12/27 15:28:33;;;;;;;;;;;4.70;99.90;;;;;;4846330;29;19930;-73
2022/12/27 15:31:11;;;;;;;;;;;4.70;99.90;;;;;;4856897;29;19927;-73
2022/12/27 15:33:36;;;;;;;;;;;4.60;99.90;;;;;;4841560;29;19932;-73
2022/12/27 15:36:08;;;;;;;;;;;4.60;99.90;;;;;;4853687;29;19928;-73
2022/12/27 15:38:34;;;;;;;;;;;4.60;99.90;;;;;;4857644;29;19923;-73
2022/12/27 15:41:05;;;;;;;;;;;4.60;99.90;;;;;;4858854;29;19928;-73
2022/12/27 15:43:40;;;;;;;;;;;4.50;99.90;;;;;;4857775;29;19931;-73
2022/12/27 15:46:16;;;;;;;;;;;4.50;99.90;;;;;;4851542;29;20034;-72
2022/12/27 15:48:42;;;;;;;;;;;4.40;99.90;;;;;;4856248;29;19934;-73
2022/12/27 15:51:23;;;;;;;;;;;4.40;99.90;;;;;;4856714;29;20010;-73
2022/12/27 15:54:02;;;;;;;;;;;4.40;99.90;;;;;;4856191;29;19947;-73
2022/12/27 15:56:34;;;;;;;;;;;4.40;99.90;;;;;;4848646;29;19950;-72
2022/12/27 15:59:19;;;;;;;;;;;4.40;99.90;;;;;;4840744;29;19943;-72
2022/12/27 16:01:44;;;;;;;;;;;4.40;99.90;;;;;;4855920;29;20419;-73
2022/12/27 16:04:39;;;;;;;;;;;4.40;99.90;;;;;;4857224;29;19979;-73
2022/12/27 16:07:25;;;;;;;;;;;4.40;99.90;;;;;;4853525;29;19968;-73
2022/12/27 16:09:51;;;;;;;;;;;4.40;99.90;;;;;;4856486;29;19924;-72
2022/12/27 16:12:38;;;;;;;;;;;4.40;99.90;;;;;;4858648;29;19931;-73
2022/12/27 16:15:22;;;;;;;;;;;4.40;99.90;;;;;;4857476;29;19923;-73
2022/12/27 16:17:53;;;;;;;;;;;4.40;99.90;;;;;;4840678;29;20423;-72
2022/12/27 16:20:22;;;;;;;;;;;4.30;99.90;;;;;;4857918;29;19940;-73
2022/12/27 16:22:47;;;;;;;;;;;4.30;99.90;;;;;;4856607;29;19943;-72
2022/12/27 16:25:25;;;;;;;;;;;4.40;99.90;;;;;;4858071;29;19928;-72
2022/12/27 16:27:52;;;;;;;;;;;4.40;99.90;;;;;;4857593;29;20042;-73
2022/12/27 16:30:35;;;;;;;;;;;4.40;99.90;;;;;;4858619;29;20472;-72
2022/12/27 16:33:02;;;;;;;;;;;4.30;99.90;;;;;;4848863;29;19967;-72
2022/12/27 16:35:28;;;;;;;;;;;4.30;99.90;;;;;;4842219;29;19954;-72
2022/12/27 16:37:54;;;;;;;;;;;4.30;99.90;;;;;;4834337;29;19924;-72
2022/12/27 16:40:42;;;;;;;;;;;4.30;99.90;;;;;;4837968;29;19932;-73